sensor_id;sensor_type;location;lat;lon;timestamp;pressure;altitude;pressure_sealevel;temperature;humidity
29383;BME280;16365;51.598;7.668;2022-07-31T00:00:19;101148.06;;;27.39;32.50
29383;BME280;16365;51.598;7.668;2022-07-31T00:02:45;101146.09;;;27.36;32.65
29383;BME280;16365;51.598;7.668;2022-07-31T00:05:12;101141.28;;;27.33;33.10
29383;BME280;16365;51.598;7.668;2022-07-31T00:07:39;101136.00;;;27.31;32.83
29383;BME280;16365;51.598;7.668;2022-07-31T00:10:06;101142.56;;;27.28;32.76
29383;BME280;16365;51.598;7.668;2022-07-31T00:12:33;101142.97;;;27.27;32.85
29383;BME280;16365;51.598;7.668;2022-07-31T00:15:02;101139.41;;;27.23;33.12
29383;BME280;16365;51.598;7.668;2022-07-31T00:17:31;101132.53;;;27.20;33.23
29383;BME280;16365;51.598;7.668;2022-07-31T00:19:57;101132.19;;;27.18;33.08
29383;BME280;16365;51.598;7.668;2022-07-31T00:22:24;101128.94;;;27.16;33.16
29383;BME280;16365;51.598;7.668;2022-07-31T00:24:51;101121.28;;;27.13;33.10
29383;BME280;16365;51.598;7.668;2022-07-31T00:27:17;101122.50;;;27.12;33.14
29383;BME280;16365;51.598;7.668;2022-07-31T00:29:44;101121.78;;;27.08;33.46
29383;BME280;16365;51.598;7.668;2022-07-31T00:32:10;101125.00;;;27.06;33.59
29383;BME280;16365;51.598;7.668;2022-07-31T00:34:37;101127.50;;;27.04;33.87
29383;BME280;16365;51.598;7.668;2022-07-31T00:37:03;101132.78;;;27.02;33.94
29383;BME280;16365;51.598;7.668;2022-07-31T00:39:30;101126.28;;;27.02;33.89
29383;BME280;16365;51.598;7.668;2022-07-31T00:41:57;101133.22;;;27.01;33.61
29383;BME280;16365;51.598;7.668;2022-07-31T00:44:24;101119.84;;;26.98;33.91
29383;BME280;16365;51.598;7.668;2022-07-31T00:46:51;101110.94;;;26.96;33.90
29383;BME280;16365;51.598;7.668;2022-07-31T00:49:18;101115.91;;;26.91;33.86
29383;BME280;16365;51.598;7.668;2022-07-31T00:51:45;101107.03;;;26.86;33.81
29383;BME280;16365;51.598;7.668;2022-07-31T00:54:12;101108.34;;;26.81;33.56
29383;BME280;16365;51.598;7.668;2022-07-31T00:56:49;101103.94;;;26.77;33.84
29383;BME280;16365;51.598;7.668;2022-07-31T00:59:15;101107.72;;;26.70;34.55
29383;BME280;16365;51.598;7.668;2022-07-31T01:01:49;101104.91;;;26.67;33.86
29383;BME280;16365;51.598;7.668;2022-07-31T01:04:16;101109.47;;;26.60;34.32
29383;BME280;16365;51.598;7.668;2022-07-31T01:06:45;101107.91;;;26.56;34.15
29383;BME280;16365;51.598;7.668;2022-07-31T01:09:12;101105.56;;;26.51;34.17
29383;BME280;16365;51.598;7.668;2022-07-31T01:12:02;101105.66;;;26.44;34.81
29383;BME280;16365;51.598;7.668;2022-07-31T01:14:35;101107.28;;;26.41;34.98
29383;BME280;16365;51.598;7.668;2022-07-31T01:17:05;101107.38;;;26.34;35.00
29383;BME280;16365;51.598;7.668;2022-07-31T01:19:38;101105.88;;;26.26;35.11
29383;BME280;16365;51.598;7.668;2022-07-31T01:31:15;101101.38;;;25.98;35.24
29383;BME280;16365;51.598;7.668;2022-07-31T01:34:04;101105.03;;;25.95;35.64
29383;BME280;16365;51.598;7.668;2022-07-31T01:36:36;101099.41;;;25.91;35.71
29383;BME280;16365;51.598;7.668;2022-07-31T01:39:05;101107.19;;;25.87;35.43
29383;BME280;16365;51.598;7.668;2022-07-31T01:41:36;101098.72;;;25.80;36.54
29383;BME280;16365;51.598;7.668;2022-07-31T01:44:05;101085.38;;;25.77;36.31
29383;BME280;16365;51.598;7.668;2022-07-31T01:46:40;101094.31;;;25.72;35.84
29383;BME280;16365;51.598;7.668;2022-07-31T01:49:10;101095.59;;;25.67;36.31
29383;BME280;16365;51.598;7.668;2022-07-31T01:51:38;101092.00;;;25.63;36.08
29383;BME280;16365;51.598;7.668;2022-07-31T01:54:07;101085.13;;;25.60;36.02
29383;BME280;16365;51.598;7.668;2022-07-31T01:56:35;101085.59;;;25.55;36.04
29383;BME280;16365;51.598;7.668;2022-07-31T01:59:03;101086.03;;;25.50;36.42
29383;BME280;16365;51.598;7.668;2022-07-31T02:01:48;101084.84;;;25.48;36.09
29383;BME280;16365;51.598;7.668;2022-07-31T02:04:17;101079.63;;;25.43;36.45
29383;BME280;16365;51.598;7.668;2022-07-31T02:06:49;101077.25;;;25.37;36.43
29383;BME280;16365;51.598;7.668;2022-07-31T02:09:18;101075.28;;;25.34;36.82
29383;BME280;16365;51.598;7.668;2022-07-31T02:11:45;101080.16;;;25.30;36.79
29383;BME280;16365;51.598;7.668;2022-07-31T02:14:20;101070.88;;;25.26;36.61
29383;BME280;16365;51.598;7.668;2022-07-31T02:16:48;101072.94;;;25.22;36.69
29383;BME280;16365;51.598;7.668;2022-07-31T02:19:16;101072.16;;;25.18;36.90
29383;BME280;16365;51.598;7.668;2022-07-31T02:21:42;101069.38;;;25.15;36.80
29383;BME280;16365;51.598;7.668;2022-07-31T02:24:09;101065.78;;;25.10;36.93
29383;BME280;16365;51.598;7.668;2022-07-31T02:26:36;101067.78;;;25.06;37.28
29383;BME280;16365;51.598;7.668;2022-07-31T02:29:06;101068.25;;;25.01;37.40
29383;BME280;16365;51.598;7.668;2022-07-31T02:31:46;101065.84;;;25.00;37.24
29383;BME280;16365;51.598;7.668;2022-07-31T02:34:29;101064.63;;;24.97;37.35
29383;BME280;16365;51.598;7.668;2022-07-31T02:36:57;101063.84;;;24.93;37.38
29383;BME280;16365;51.598;7.668;2022-07-31T02:39:26;101069.56;;;24.90;37.54
29383;BME280;16365;51.598;7.668;2022-07-31T02:41:57;101068.38;;;24.87;37.46
29383;BME280;16365;51.598;7.668;2022-07-31T02:44:27;101064.75;;;24.83;37.39
29383;BME280;16365;51.598;7.668;2022-07-31T02:46:56;101062.75;;;24.80;37.51
29383;BME280;16365;51.598;7.668;2022-07-31T02:49:25;101056.69;;;24.78;37.53
29383;BME280;16365;51.598;7.668;2022-07-31T02:51:52;101054.69;;;24.75;37.75
29383;BME280;16365;51.598;7.668;2022-07-31T02:54:21;101049.84;;;24.72;37.68
29383;BME280;16365;51.598;7.668;2022-07-31T02:56:51;101052.72;;;24.68;37.97
29383;BME280;16365;51.598;7.668;2022-07-31T02:59:18;101043.84;;;24.66;37.51
29383;BME280;16365;51.598;7.668;2022-07-31T03:01:45;101050.69;;;24.69;37.44
29383;BME280;16365;51.598;7.668;2022-07-31T03:04:12;101049.09;;;24.64;37.83
29383;BME280;16365;51.598;7.668;2022-07-31T03:06:39;101036.59;;;24.58;37.75
29383;BME280;16365;51.598;7.668;2022-07-31T03:09:05;101032.16;;;24.53;38.08
29383;BME280;16365;51.598;7.668;2022-07-31T03:11:32;101035.44;;;24.48;38.00
29383;BME280;16365;51.598;7.668;2022-07-31T03:14:00;101035.88;;;24.47;37.98
29383;BME280;16365;51.598;7.668;2022-07-31T03:16:29;101038.72;;;24.43;38.40
29383;BME280;16365;51.598;7.668;2022-07-31T03:18:56;101027.41;;;24.40;38.35
29383;BME280;16365;51.598;7.668;2022-07-31T03:21:23;101038.38;;;24.38;38.63
29383;BME280;16365;51.598;7.668;2022-07-31T03:23:50;101032.25;;;24.35;38.75
29383;BME280;16365;51.598;7.668;2022-07-31T03:26:17;101031.88;;;24.33;38.98
29383;BME280;16365;51.598;7.668;2022-07-31T03:28:44;101035.94;;;24.32;38.86
29383;BME280;16365;51.598;7.668;2022-07-31T03:31:11;101032.69;;;24.30;38.84
29383;BME280;16365;51.598;7.668;2022-07-31T03:33:37;101035.97;;;24.29;38.84
29383;BME280;16365;51.598;7.668;2022-07-31T03:36:04;101029.88;;;24.27;38.93
29383;BME280;16365;51.598;7.668;2022-07-31T03:38:31;101036.78;;;24.26;39.00
29383;BME280;16365;51.598;7.668;2022-07-31T03:41:07;101027.47;;;24.25;38.86
29383;BME280;16365;51.598;7.668;2022-07-31T03:43:35;101034.78;;;24.23;38.96
29383;BME280;16365;51.598;7.668;2022-07-31T03:46:15;101024.66;;;24.22;39.03
29383;BME280;16365;51.598;7.668;2022-07-31T03:48:43;101020.22;;;24.21;39.07
29383;BME280;16365;51.598;7.668;2022-07-31T03:51:10;101026.69;;;24.21;38.95
29383;BME280;16365;51.598;7.668;2022-07-31T03:53:37;101018.19;;;24.21;39.10
29383;BME280;16365;51.598;7.668;2022-07-31T03:56:05;101023.03;;;24.21;39.24
29383;BME280;16365;51.598;7.668;2022-07-31T03:58:32;101016.56;;;24.24;38.65
29383;BME280;16365;51.598;7.668;2022-07-31T04:01:02;101023.00;;;24.28;39.16
29383;BME280;16365;51.598;7.668;2022-07-31T04:03:33;101021.38;;;24.27;38.98
29383;BME280;16365;51.598;7.668;2022-07-31T04:06:00;101021.38;;;24.27;38.96
29383;BME280;16365;51.598;7.668;2022-07-31T04:08:26;101024.22;;;24.27;38.72
29383;BME280;16365;51.598;7.668;2022-07-31T04:10:53;101026.66;;;24.28;39.05
29383;BME280;16365;51.598;7.668;2022-07-31T04:13:19;101023.41;;;24.30;38.73
29383;BME280;16365;51.598;7.668;2022-07-31T04:15:46;101031.88;;;24.33;38.86
29383;BME280;16365;51.598;7.668;2022-07-31T04:18:12;101019.72;;;24.36;38.69
29383;BME280;16365;51.598;7.668;2022-07-31T04:20:39;101016.88;;;24.40;38.81
29383;BME280;16365;51.598;7.668;2022-07-31T04:23:05;101021.72;;;24.43;38.85
29383;BME280;16365;51.598;7.668;2022-07-31T04:25:32;101030.22;;;24.47;39.08
29383;BME280;16365;51.598;7.668;2022-07-31T04:27:59;101024.13;;;24.48;38.49
29383;BME280;16365;51.598;7.668;2022-07-31T04:30:26;101018.00;;;24.53;38.87
29383;BME280;16365;51.598;7.668;2022-07-31T04:32:53;101009.88;;;24.55;38.71
29383;BME280;16365;51.598;7.668;2022-07-31T04:35:19;101014.72;;;24.58;38.67
29383;BME280;16365;51.598;7.668;2022-07-31T04:37:47;101004.16;;;24.63;38.31
29383;BME280;16365;51.598;7.668;2022-07-31T04:40:14;101003.31;;;24.66;38.48
29383;BME280;16365;51.598;7.668;2022-07-31T04:42:41;101001.25;;;24.70;38.35
29383;BME280;16365;51.598;7.668;2022-07-31T04:45:08;100993.94;;;24.72;38.49
29383;BME280;16365;51.598;7.668;2022-07-31T04:47:34;101003.63;;;24.75;38.36
29383;BME280;16365;51.598;7.668;2022-07-31T04:50:03;101002.38;;;24.79;38.55
29383;BME280;16365;51.598;7.668;2022-07-31T04:52:30;101000.75;;;24.82;38.19
29383;BME280;16365;51.598;7.668;2022-07-31T04:54:56;101006.41;;;24.85;38.15
29383;BME280;16365;51.598;7.668;2022-07-31T04:57:23;101008.38;;;24.88;38.15
29383;BME280;16365;51.598;7.668;2022-07-31T04:59:49;101001.03;;;24.95;38.41
29383;BME280;16365;51.598;7.668;2022-07-31T05:02:25;101002.59;;;24.99;37.82
29383;BME280;16365;51.598;7.668;2022-07-31T05:04:52;101011.47;;;25.05;37.83
29383;BME280;16365;51.598;7.668;2022-07-31T05:07:22;101002.94;;;25.08;37.69
29383;BME280;16365;51.598;7.668;2022-07-31T05:09:52;101014.63;;;25.14;37.80
29383;BME280;16365;51.598;7.668;2022-07-31T05:12:19;101012.56;;;25.18;37.88
29383;BME280;16365;51.598;7.668;2022-07-31T05:14:46;101012.53;;;25.22;37.79
29383;BME280;16365;51.598;7.668;2022-07-31T05:17:12;101016.94;;;25.26;37.73
29383;BME280;16365;51.598;7.668;2022-07-31T05:19:39;101014.88;;;25.30;37.62
29383;BME280;16365;51.598;7.668;2022-07-31T05:22:05;101011.19;;;25.33;37.59
29383;BME280;16365;51.598;7.668;2022-07-31T05:24:32;101012.81;;;25.34;38.00
29383;BME280;16365;51.598;7.668;2022-07-31T05:27:00;101018.44;;;25.38;38.24
29383;BME280;16365;51.598;7.668;2022-07-31T05:29:28;101013.97;;;25.41;38.45
29383;BME280;16365;51.598;7.668;2022-07-31T05:31:55;101011.88;;;25.45;38.23
29383;BME280;16365;51.598;7.668;2022-07-31T05:34:25;101011.47;;;25.46;38.43
29383;BME280;16365;51.598;7.668;2022-07-31T05:36:55;101017.91;;;25.50;38.17
29383;BME280;16365;51.598;7.668;2022-07-31T05:39:21;101016.25;;;25.53;38.23
29383;BME280;16365;51.598;7.668;2022-07-31T05:41:48;101026.31;;;25.57;38.34
29383;BME280;16365;51.598;7.668;2022-07-31T05:44:16;101027.91;;;25.62;38.12
29383;BME280;16365;51.598;7.668;2022-07-31T05:46:43;101019.34;;;25.66;38.37
29383;BME280;16365;51.598;7.668;2022-07-31T05:49:09;101024.97;;;25.69;38.66
29383;BME280;16365;51.598;7.668;2022-07-31T05:51:36;101011.53;;;25.73;38.46
29383;BME280;16365;51.598;7.668;2022-07-31T05:54:02;101014.34;;;25.77;38.66
29383;BME280;16365;51.598;7.668;2022-07-31T05:56:29;101025.25;;;25.82;38.21
29383;BME280;16365;51.598;7.668;2022-07-31T05:58:55;101014.63;;;25.86;38.10
29383;BME280;16365;51.598;7.668;2022-07-31T06:01:22;101016.63;;;25.89;38.50
29383;BME280;16365;51.598;7.668;2022-07-31T06:03:49;101015.38;;;25.94;38.71
29383;BME280;16365;51.598;7.668;2022-07-31T06:06:17;101018.16;;;25.97;38.70
29383;BME280;16365;51.598;7.668;2022-07-31T06:08:44;101016.06;;;26.01;38.60
29383;BME280;16365;51.598;7.668;2022-07-31T06:11:11;101009.91;;;26.06;38.54
29383;BME280;16365;51.598;7.668;2022-07-31T06:13:37;101017.16;;;26.11;38.46
29383;BME280;16365;51.598;7.668;2022-07-31T06:16:10;101014.69;;;26.13;38.46
29383;BME280;16365;51.598;7.668;2022-07-31T06:18:37;101008.09;;;26.20;37.96
29383;BME280;16365;51.598;7.668;2022-07-31T06:21:03;101006.00;;;26.24;37.78
29383;BME280;16365;51.598;7.668;2022-07-31T06:23:30;101005.94;;;26.27;37.51
29383;BME280;16365;51.598;7.668;2022-07-31T06:25:57;101004.66;;;26.32;37.87
29383;BME280;16365;51.598;7.668;2022-07-31T06:28:24;100999.72;;;26.36;37.50
29383;BME280;16365;51.598;7.668;2022-07-31T06:31:20;100998.44;;;26.40;37.10
29383;BME280;16365;51.598;7.668;2022-07-31T06:33:47;100999.94;;;26.49;37.32
29383;BME280;16365;51.598;7.668;2022-07-31T06:36:16;101002.75;;;26.52;37.46
29383;BME280;16365;51.598;7.668;2022-07-31T06:38:42;101000.59;;;26.60;36.93
29383;BME280;16365;51.598;7.668;2022-07-31T06:41:09;100993.63;;;26.64;37.08
29383;BME280;16365;51.598;7.668;2022-07-31T06:43:35;101002.00;;;26.72;37.40
29383;BME280;16365;51.598;7.668;2022-07-31T06:46:02;100997.03;;;26.79;36.92
29383;BME280;16365;51.598;7.668;2022-07-31T06:48:28;100996.44;;;26.88;37.24
29383;BME280;16365;51.598;7.668;2022-07-31T06:50:55;100989.78;;;26.98;37.13
29383;BME280;16365;51.598;7.668;2022-07-31T06:53:41;100989.97;;;27.11;37.25
29383;BME280;16365;51.598;7.668;2022-07-31T06:56:08;100986.47;;;27.23;37.03
29383;BME280;16365;51.598;7.668;2022-07-31T06:58:35;100991.16;;;27.33;36.77
29383;BME280;16365;51.598;7.668;2022-07-31T07:01:01;100986.03;;;27.45;36.55
29383;BME280;16365;51.598;7.668;2022-07-31T07:03:28;100994.38;;;27.55;36.72
29383;BME280;16365;51.598;7.668;2022-07-31T07:05:54;100985.16;;;27.67;36.31
29383;BME280;16365;51.598;7.668;2022-07-31T07:08:21;100984.50;;;27.80;36.36
29383;BME280;16365;51.598;7.668;2022-07-31T07:10:47;100983.41;;;27.93;36.74
29383;BME280;16365;51.598;7.668;2022-07-31T07:13:14;100983.06;;;28.08;36.57
29383;BME280;16365;51.598;7.668;2022-07-31T07:15:40;100981.50;;;28.23;36.04
29383;BME280;16365;51.598;7.668;2022-07-31T07:18:07;100981.63;;;28.36;35.81
29383;BME280;16365;51.598;7.668;2022-07-31T07:20:33;100969.53;;;28.48;35.54
29383;BME280;16365;51.598;7.668;2022-07-31T07:23:00;100975.31;;;28.61;35.35
29383;BME280;16365;51.598;7.668;2022-07-31T07:25:26;100974.22;;;28.71;35.28
29383;BME280;16365;51.598;7.668;2022-07-31T07:27:54;100974.31;;;28.84;35.25
29383;BME280;16365;51.598;7.668;2022-07-31T07:30:22;100969.13;;;28.95;35.20
29383;BME280;16365;51.598;7.668;2022-07-31T07:32:49;100963.97;;;29.06;34.76
29383;BME280;16365;51.598;7.668;2022-07-31T07:35:15;100966.94;;;29.15;34.77
29383;BME280;16365;51.598;7.668;2022-07-31T07:37:42;100979.44;;;29.22;34.38
29383;BME280;16365;51.598;7.668;2022-07-31T07:40:08;100973.16;;;29.27;34.31
29383;BME280;16365;51.598;7.668;2022-07-31T07:42:35;100968.25;;;29.27;34.05
29383;BME280;16365;51.598;7.668;2022-07-31T07:45:02;100969.06;;;29.28;34.03
29383;BME280;16365;51.598;7.668;2022-07-31T07:47:33;100972.38;;;29.26;33.89
29383;BME280;16365;51.598;7.668;2022-07-31T07:50:20;100963.81;;;29.26;33.90
29383;BME280;16365;51.598;7.668;2022-07-31T07:52:52;100965.88;;;29.26;34.30
29383;BME280;16365;51.598;7.668;2022-07-31T07:55:19;100955.66;;;29.25;33.88
29383;BME280;16365;51.598;7.668;2022-07-31T07:57:46;100963.44;;;29.24;33.83
29383;BME280;16365;51.598;7.668;2022-07-31T08:00:12;100958.19;;;29.23;34.21
29383;BME280;16365;51.598;7.668;2022-07-31T08:02:39;100956.59;;;29.22;33.96
29383;BME280;16365;51.598;7.668;2022-07-31T08:05:07;100957.03;;;29.20;33.98
29383;BME280;16365;51.598;7.668;2022-07-31T08:07:36;100957.47;;;29.18;34.23
29383;BME280;16365;51.598;7.668;2022-07-31T08:10:08;100944.78;;;29.19;33.93
29383;BME280;16365;51.598;7.668;2022-07-31T08:12:35;100951.13;;;29.27;34.82
29383;BME280;16365;51.598;7.668;2022-07-31T08:15:03;100948.75;;;29.38;34.96
29383;BME280;16365;51.598;7.668;2022-07-31T08:17:29;100942.09;;;29.58;34.31
29383;BME280;16365;51.598;7.668;2022-07-31T08:19:56;100950.03;;;29.79;34.82
29383;BME280;16365;51.598;7.668;2022-07-31T08:22:23;100950.50;;;30.03;34.26
29383;BME280;16365;51.598;7.668;2022-07-31T08:24:49;100949.50;;;30.23;33.54
29383;BME280;16365;51.598;7.668;2022-07-31T08:27:16;100943.63;;;30.39;33.57
29383;BME280;16365;51.598;7.668;2022-07-31T08:30:06;100948.53;;;30.51;32.87
29383;BME280;16365;51.598;7.668;2022-07-31T08:32:33;100941.09;;;30.54;32.35
29383;BME280;16365;51.598;7.668;2022-07-31T08:35:00;100947.72;;;30.51;32.53
29383;BME280;16365;51.598;7.668;2022-07-31T08:37:26;100939.72;;;30.45;32.58
29383;BME280;16365;51.598;7.668;2022-07-31T08:40:16;100939.97;;;30.38;32.66
29383;BME280;16365;51.598;7.668;2022-07-31T08:42:44;100941.69;;;30.36;32.55
29383;BME280;16365;51.598;7.668;2022-07-31T08:45:12;100949.94;;;30.34;32.51
29383;BME280;16365;51.598;7.668;2022-07-31T08:47:40;100946.38;;;30.30;32.61
29383;BME280;16365;51.598;7.668;2022-07-31T08:50:07;100952.22;;;30.26;32.63
29383;BME280;16365;51.598;7.668;2022-07-31T08:52:39;100946.63;;;30.23;32.64
29383;BME280;16365;51.598;7.668;2022-07-31T08:55:08;100944.00;;;30.15;32.97
29383;BME280;16365;51.598;7.668;2022-07-31T08:57:34;100947.84;;;30.09;33.00
29383;BME280;16365;51.598;7.668;2022-07-31T09:00:06;100959.19;;;30.00;33.09
29383;BME280;16365;51.598;7.668;2022-07-31T09:02:37;100965.09;;;29.92;32.90
29383;BME280;16365;51.598;7.668;2022-07-31T09:05:04;100966.13;;;29.86;33.40
29383;BME280;16365;51.598;7.668;2022-07-31T09:07:31;100962.25;;;29.80;33.26
29383;BME280;16365;51.598;7.668;2022-07-31T09:09:57;100969.53;;;29.68;33.53
29383;BME280;16365;51.598;7.668;2022-07-31T09:12:31;100965.31;;;29.60;33.62
29383;BME280;16365;51.598;7.668;2022-07-31T09:15:00;100959.69;;;29.56;33.23
29383;BME280;16365;51.598;7.668;2022-07-31T09:17:31;100963.19;;;29.48;33.34
29383;BME280;16365;51.598;7.668;2022-07-31T09:19:58;100954.38;;;29.42;32.98
29383;BME280;16365;51.598;7.668;2022-07-31T09:22:29;100961.91;;;29.36;33.45
29383;BME280;16365;51.598;7.668;2022-07-31T09:27:33;100955.56;;;29.28;33.31
29383;BME280;16365;51.598;7.668;2022-07-31T09:30:00;100954.44;;;29.26;33.45
29383;BME280;16365;51.598;7.668;2022-07-31T09:32:27;100949.63;;;29.23;33.61
29383;BME280;16365;51.598;7.668;2022-07-31T09:34:53;100953.28;;;29.23;33.47
29383;BME280;16365;51.598;7.668;2022-07-31T09:37:24;100953.38;;;29.19;33.79
29383;BME280;16365;51.598;7.668;2022-07-31T09:39:52;100948.03;;;29.22;33.74
29383;BME280;16365;51.598;7.668;2022-07-31T09:42:19;100947.56;;;29.23;33.58
29383;BME280;16365;51.598;7.668;2022-07-31T09:44:48;100948.72;;;29.26;33.53
29383;BME280;16365;51.598;7.668;2022-07-31T09:47:18;100954.88;;;29.24;33.68
29383;BME280;16365;51.598;7.668;2022-07-31T09:49:55;100948.03;;;29.22;33.76
29383;BME280;16365;51.598;7.668;2022-07-31T09:52:21;100947.22;;;29.21;34.20
29383;BME280;16365;51.598;7.668;2022-07-31T09:54:59;100944.91;;;29.16;34.66
29383;BME280;16365;51.598;7.668;2022-07-31T09:57:26;100945.97;;;29.22;34.31
29383;BME280;16365;51.598;7.668;2022-07-31T09:59:54;100951.59;;;29.26;34.34
29383;BME280;16365;51.598;7.668;2022-07-31T10:02:23;100950.22;;;29.30;34.56
29383;BME280;16365;51.598;7.668;2022-07-31T10:04:55;100959.84;;;29.36;34.49
29383;BME280;16365;51.598;7.668;2022-07-31T10:07:24;100954.81;;;29.40;34.70
29383;BME280;16365;51.598;7.668;2022-07-31T10:09:59;100954.69;;;29.44;34.45
29383;BME280;16365;51.598;7.668;2022-07-31T10:12:28;100948.09;;;29.47;34.47
29383;BME280;16365;51.598;7.668;2022-07-31T10:14:55;100948.44;;;29.49;34.12
29383;BME280;16365;51.598;7.668;2022-07-31T10:17:28;100955.75;;;29.50;34.54
29383;BME280;16365;51.598;7.668;2022-07-31T10:20:03;100953.47;;;29.45;34.51
29383;BME280;16365;51.598;7.668;2022-07-31T10:22:38;100959.28;;;29.41;34.80
29383;BME280;16365;51.598;7.668;2022-07-31T10:25:08;100956.88;;;29.40;34.57
29383;BME280;16365;51.598;7.668;2022-07-31T10:27:38;100951.59;;;29.38;34.58
29383;BME280;16365;51.598;7.668;2022-07-31T10:30:06;100939.84;;;29.36;34.94
29383;BME280;16365;51.598;7.668;2022-07-31T10:32:34;100944.75;;;29.36;34.61
29383;BME280;16365;51.598;7.668;2022-07-31T10:35:03;100943.59;;;29.33;35.18
29383;BME280;16365;51.598;7.668;2022-07-31T10:37:35;100949.66;;;29.35;35.14
29383;BME280;16365;51.598;7.668;2022-07-31T10:40:28;100945.19;;;29.34;35.14
29383;BME280;16365;51.598;7.668;2022-07-31T10:45:50;100932.41;;;29.39;35.01
29383;BME280;16365;51.598;7.668;2022-07-31T10:48:18;100938.34;;;29.44;34.99
29383;BME280;16365;51.598;7.668;2022-07-31T10:50:45;100933.00;;;29.47;35.02
29383;BME280;16365;51.598;7.668;2022-07-31T10:53:15;100936.31;;;29.45;34.95
29383;BME280;16365;51.598;7.668;2022-07-31T10:55:42;100932.22;;;29.46;35.34
29383;BME280;16365;51.598;7.668;2022-07-31T10:58:16;100931.84;;;29.44;35.48
29383;BME280;16365;51.598;7.668;2022-07-31T11:00:45;100931.28;;;29.49;35.21
29383;BME280;16365;51.598;7.668;2022-07-31T11:03:14;100924.34;;;29.50;35.50
29383;BME280;16365;51.598;7.668;2022-07-31T11:05:55;100928.88;;;29.48;35.87
29383;BME280;16365;51.598;7.668;2022-07-31T11:08:39;100924.22;;;29.54;35.61
29383;BME280;16365;51.598;7.668;2022-07-31T11:11:06;100919.44;;;29.63;35.41
29383;BME280;16365;51.598;7.668;2022-07-31T11:13:43;100927.94;;;29.67;35.68
29383;BME280;16365;51.598;7.668;2022-07-31T11:16:10;100927.16;;;29.79;35.52
29383;BME280;16365;51.598;7.668;2022-07-31T11:18:37;100922.34;;;29.89;35.50
29383;BME280;16365;51.598;7.668;2022-07-31T11:21:07;100922.59;;;29.94;35.70
29383;BME280;16365;51.598;7.668;2022-07-31T11:23:54;100915.59;;;30.08;35.13
29383;BME280;16365;51.598;7.668;2022-07-31T11:26:29;100927.50;;;30.19;34.84
29383;BME280;16365;51.598;7.668;2022-07-31T11:28:58;100918.25;;;30.28;35.00
29383;BME280;16365;51.598;7.668;2022-07-31T11:31:45;100922.44;;;30.36;34.60
29383;BME280;16365;51.598;7.668;2022-07-31T11:34:11;100911.56;;;30.44;34.97
29383;BME280;16365;51.598;7.668;2022-07-31T11:36:41;100904.78;;;30.51;34.25
29383;BME280;16365;51.598;7.668;2022-07-31T11:39:11;100902.03;;;30.60;34.17
29383;BME280;16365;51.598;7.668;2022-07-31T11:41:41;100913.94;;;30.71;34.22
29383;BME280;16365;51.598;7.668;2022-07-31T11:44:10;100906.84;;;30.76;33.69
29383;BME280;16365;51.598;7.668;2022-07-31T11:46:37;100905.88;;;30.79;33.66
29383;BME280;16365;51.598;7.668;2022-07-31T11:49:04;100918.13;;;30.79;33.65
29383;BME280;16365;51.598;7.668;2022-07-31T11:51:31;100910.03;;;30.78;33.69
29383;BME280;16365;51.598;7.668;2022-07-31T11:53:57;100917.81;;;30.77;33.73
29383;BME280;16365;51.598;7.668;2022-07-31T11:56:26;100917.00;;;30.77;33.52
29383;BME280;16365;51.598;7.668;2022-07-31T11:58:55;100910.50;;;30.76;33.49
29383;BME280;16365;51.598;7.668;2022-07-31T12:01:24;100915.88;;;30.74;33.45
29383;BME280;16365;51.598;7.668;2022-07-31T12:03:52;100906.56;;;30.70;33.50
29383;BME280;16365;51.598;7.668;2022-07-31T12:06:19;100907.50;;;30.67;34.01
29383;BME280;16365;51.598;7.668;2022-07-31T12:08:48;100906.72;;;30.66;33.54
29383;BME280;16365;51.598;7.668;2022-07-31T12:11:18;100920.66;;;30.64;34.01
29383;BME280;16365;51.598;7.668;2022-07-31T12:13:47;100906.84;;;30.63;34.04
29383;BME280;16365;51.598;7.668;2022-07-31T12:16:14;100904.44;;;30.61;34.01
29383;BME280;16365;51.598;7.668;2022-07-31T12:18:55;100906.63;;;30.57;33.46
29383;BME280;16365;51.598;7.668;2022-07-31T12:21:32;100909.59;;;30.54;33.34
29383;BME280;16365;51.598;7.668;2022-07-31T12:23:59;100905.94;;;30.53;34.10
29383;BME280;16365;51.598;7.668;2022-07-31T12:26:28;100902.88;;;30.48;33.96
29383;BME280;16365;51.598;7.668;2022-07-31T12:31:24;100900.13;;;30.44;35.29
29383;BME280;16365;51.598;7.668;2022-07-31T12:33:50;100901.03;;;30.41;35.30
29383;BME280;16365;51.598;7.668;2022-07-31T12:36:17;100902.66;;;30.42;35.22
29383;BME280;16365;51.598;7.668;2022-07-31T12:38:44;100903.78;;;30.44;35.34
29383;BME280;16365;51.598;7.668;2022-07-31T12:41:14;100913.06;;;30.49;35.10
29383;BME280;16365;51.598;7.668;2022-07-31T12:43:40;100901.13;;;30.50;34.76
29383;BME280;16365;51.598;7.668;2022-07-31T12:46:21;100898.75;;;30.49;34.84
29383;BME280;16365;51.598;7.668;2022-07-31T12:49:00;100887.28;;;30.49;34.83
29383;BME280;16365;51.598;7.668;2022-07-31T12:51:34;100890.28;;;30.45;34.88
29383;BME280;16365;51.598;7.668;2022-07-31T12:54:14;100896.94;;;30.42;34.92
29383;BME280;16365;51.598;7.668;2022-07-31T12:56:41;100893.72;;;30.40;34.71
29383;BME280;16365;51.598;7.668;2022-07-31T12:59:08;100890.19;;;30.36;34.95
29383;BME280;16365;51.598;7.668;2022-07-31T13:01:35;100896.47;;;30.31;35.06
29383;BME280;16365;51.598;7.668;2022-07-31T13:04:03;100891.69;;;30.28;35.17
29383;BME280;16365;51.598;7.668;2022-07-31T13:06:43;100887.00;;;30.21;35.01
29383;BME280;16365;51.598;7.668;2022-07-31T13:09:09;100880.97;;;30.19;35.55
29383;BME280;16365;51.598;7.668;2022-07-31T13:11:36;100878.91;;;30.19;36.01
29383;BME280;16365;51.598;7.668;2022-07-31T13:14:18;100869.41;;;30.23;36.11
29383;BME280;16365;51.598;7.668;2022-07-31T13:16:46;100867.88;;;30.31;35.93